Time;durP1;ratioP1;P1;durP2;ratioP2;P2;SDS_P1;SDS_P2;PMS_P1;PMS_P2;Temp;Humidity;BMP_temperature;BMP_pressure;BME280_temperature;BME280_humidity;BME280_pressure;Samples;Min_cycle;Max_cycle;Signal;HPM_P1;HPM_P2
2022/05/28 00:00:36;;;;;;;26.10;4.10;;;14.30;31.70;;;;;;5007089;28;20470;-63
2022/05/28 00:03:04;;;;;;;27.20;4.50;;;14.30;31.60;;;;;;5005916;28;20468;-63
2022/05/28 00:05:31;;;;;;;26.00;4.10;;;14.20;32.40;;;;;;5007919;28;20825;-63
2022/05/28 00:07:58;;;;;;;28.50;3.70;;;14.20;31.80;;;;;;5003568;28;20996;-63
2022/05/28 00:10:25;;;;;;;26.93;4.23;;;14.20;31.90;;;;;;5006206;28;20840;-63
2022/05/28 00:12:54;;;;;;;26.57;4.50;;;14.10;31.70;;;;;;5007568;28;20799;-63
2022/05/28 00:15:23;;;;;;;28.97;4.30;;;14.10;32.00;;;;;;5007881;28;20555;-63
2022/05/28 00:17:50;;;;;;;26.43;3.83;;;14.10;32.00;;;;;;5007919;28;20483;-63
2022/05/28 00:20:17;;;;;;;27.17;4.50;;;14.10;32.90;;;;;;5006545;28;20476;-63
2022/05/28 00:22:44;;;;;;;26.80;4.17;;;14.10;32.30;;;;;;5007233;28;20459;-63
2022/05/28 00:25:14;;;;;;;26.80;4.30;;;14.10;32.40;;;;;;5007144;28;20466;-63
2022/05/28 00:27:41;;;;;;;29.90;4.77;;;14.00;32.40;;;;;;5006906;28;20476;-63
2022/05/28 00:30:12;;;;;;;26.73;4.57;;;14.00;32.50;;;;;;5005795;28;20470;-64
2022/05/28 00:32:40;;;;;;;27.30;4.40;;;14.00;32.60;;;;;;5007071;28;20826;-63
2022/05/28 00:35:11;;;;;;;26.23;4.23;;;13.90;32.50;;;;;;5007732;28;20521;-63
2022/05/28 00:37:38;;;;;;;26.53;5.00;;;13.90;32.80;;;;;;5006980;28;20472;-64
2022/05/28 00:40:08;;;;;;;26.73;5.00;;;13.90;32.70;;;;;;5007634;28;20484;-64
2022/05/28 00:42:35;;;;;;;29.83;5.70;;;13.90;32.80;;;;;;5007250;28;20482;-63
2022/05/28 00:45:02;;;;;;;26.77;4.40;;;13.90;32.90;;;;;;5007577;28;20638;-63
2022/05/28 00:47:31;;;;;;;26.80;4.97;;;13.90;33.70;;;;;;5007298;28;20567;-63
2022/05/28 00:49:58;;;;;;;26.03;4.53;;;13.90;33.60;;;;;;5006837;28;20606;-63
2022/05/28 00:52:27;;;;;;;26.83;4.97;;;14.00;34.30;;;;;;5005657;28;20466;-63
2022/05/28 00:54:54;;;;;;;27.67;4.53;;;14.10;33.80;;;;;;5006822;28;20968;-63
2022/05/28 00:57:22;;;;;;;27.20;4.27;;;14.20;33.70;;;;;;5007062;28;20966;-63
2022/05/28 00:59:49;;;;;;;27.40;4.50;;;14.20;33.30;;;;;;5007214;28;20468;-63
2022/05/28 01:02:22;;;;;;;27.40;4.07;;;14.20;33.10;;;;;;5006457;28;20472;-63
2022/05/28 01:04:56;;;;;;;27.07;4.30;;;14.20;33.60;;;;;;5007535;28;20471;-63
2022/05/28 01:07:36;;;;;;;27.77;5.10;;;14.30;33.70;;;;;;5006984;28;20491;-63
2022/05/28 01:10:09;;;;;;;27.97;4.50;;;14.30;33.80;;;;;;5010009;28;20459;-63
2022/05/28 01:12:41;;;;;;;27.90;4.50;;;14.30;33.20;;;;;;5009180;28;20482;-64
2022/05/28 01:15:13;;;;;;;32.80;4.60;;;14.20;32.90;;;;;;5011236;28;20440;-63
2022/05/28 01:17:44;;;;;;;28.47;4.97;;;14.20;33.70;;;;;;5010632;28;20519;-63
2022/05/28 01:20:18;;;;;;;27.43;3.93;;;14.20;33.40;;;;;;5011199;28;20444;-63
2022/05/28 01:23:20;;;;;;;26.90;4.43;;;14.20;33.10;;;;;;5009827;28;20836;-63
2022/05/28 01:25:59;;;;;;;27.67;4.67;;;14.30;33.70;;;;;;5007449;28;20471;-63
2022/05/28 01:28:33;;;;;;;28.20;5.07;;;14.40;34.10;;;;;;5009516;28;20475;-63
2022/05/28 01:31:03;;;;;;;30.00;5.03;;;14.40;33.30;;;;;;5010242;28;20467;-63
2022/05/28 01:33:30;;;;;;;29.03;4.40;;;14.50;33.50;;;;;;5010548;28;20558;-64
2022/05/28 01:35:57;;;;;;;27.57;4.50;;;14.60;33.30;;;;;;5010181;28;20455;-63
2022/05/28 01:38:24;;;;;;;29.37;4.73;;;14.70;33.10;;;;;;5008088;28;20475;-64
2022/05/28 01:40:52;;;;;;;30.00;4.80;;;14.60;32.70;;;;;;5009957;28;20488;-63
2022/05/28 01:43:21;;;;;;;27.43;4.43;;;14.60;32.80;;;;;;5010696;28;20802;-63
2022/05/28 01:45:51;;;;;;;28.13;4.77;;;14.60;33.40;;;;;;5010308;28;20464;-63
2022/05/28 01:48:20;;;;;;;26.70;4.23;;;14.70;33.80;;;;;;5009339;28;20487;-63
2022/05/28 01:50:49;;;;;;;27.70;4.83;;;14.70;33.20;;;;;;5010669;28;20456;-63
2022/05/28 01:54:11;;;;;;;27.60;5.00;;;14.70;33.90;;;;;;5010060;28;20456;-63
2022/05/28 01:56:40;;;;;;;28.07;4.77;;;14.80;33.80;;;;;;5009780;28;20476;-63
2022/05/28 01:59:07;;;;;;;32.57;5.57;;;14.90;34.10;;;;;;5007782;28;20854;-63
2022/05/28 02:01:35;;;;;;;30.60;5.93;;;14.90;34.50;;;;;;5008522;28;20487;-64
2022/05/28 02:04:05;;;;;;;29.07;6.20;;;14.80;34.40;;;;;;5008826;28;20464;-63
2022/05/28 02:06:32;;;;;;;35.87;8.03;;;14.80;34.40;;;;;;5008834;28;20897;-63
2022/05/28 02:09:00;;;;;;;30.80;7.30;;;14.70;35.00;;;;;;5007558;28;20470;-63
2022/05/28 02:11:31;;;;;;;35.63;6.60;;;14.70;34.10;;;;;;5009792;28;20464;-63
2022/05/28 02:14:12;;;;;;;31.00;6.43;;;14.70;34.10;;;;;;5010388;28;20451;-63
2022/05/28 02:16:49;;;;;;;31.53;6.90;;;14.70;33.90;;;;;;5009664;28;20483;-63
2022/05/28 02:19:26;;;;;;;33.50;6.77;;;14.70;33.90;;;;;;5006680;28;20470;-63
2022/05/28 02:22:03;;;;;;;32.40;6.47;;;14.60;33.60;;;;;;5009258;28;20662;-64
2022/05/28 02:24:36;;;;;;;34.50;6.40;;;14.60;33.40;;;;;;5009726;28;20448;-63
2022/05/28 02:27:09;;;;;;;34.50;6.57;;;14.60;33.30;;;;;;5009723;28;20480;-63
2022/05/28 02:29:36;;;;;;;33.47;7.43;;;14.50;33.40;;;;;;5008105;28;20476;-63
2022/05/28 02:32:13;;;;;;;32.57;6.57;;;14.40;33.20;;;;;;5008558;28;20471;-63
2022/05/28 02:34:40;;;;;;;36.27;8.50;;;14.30;33.40;;;;;;5009011;28;20448;-63
2022/05/28 02:37:07;;;;;;;34.90;7.13;;;14.20;33.20;;;;;;5008928;28;20490;-63
2022/05/28 02:39:34;;;;;;;29.67;6.70;;;14.10;33.20;;;;;;5007795;28;20464;-63
2022/05/28 02:42:01;;;;;;;29.83;6.60;;;14.10;33.30;;;;;;5009496;28;20484;-64
2022/05/28 02:44:28;;;;;;;30.47;6.13;;;14.00;33.10;;;;;;5008964;28;20459;-63
2022/05/28 02:46:55;;;;;;;32.57;6.53;;;14.00;33.20;;;;;;5009184;28;20488;-64
2022/05/28 02:49:25;;;;;;;32.33;6.17;;;14.00;33.20;;;;;;5007336;28;20574;-63
2022/05/28 02:51:52;;;;;;;31.60;6.00;;;14.00;33.20;;;;;;4988885;28;20456;-63
2022/05/28 02:54:19;;;;;;;30.70;6.60;;;14.00;33.50;;;;;;4989648;28;20467;-63
2022/05/28 02:56:45;;;;;;;30.90;6.17;;;14.00;33.50;;;;;;4989365;28;21017;-63
2022/05/28 02:59:12;;;;;;;30.70;6.37;;;14.00;33.50;;;;;;4988886;28;20465;-63
2022/05/28 03:01:39;;;;;;;33.40;6.60;;;14.00;33.40;;;;;;5003234;28;20486;-63
2022/05/28 03:04:08;;;;;;;30.40;5.63;;;14.00;33.20;;;;;;5009414;28;20456;-63
2022/05/28 03:06:37;;;;;;;33.17;5.80;;;14.00;32.80;;;;;;5008548;28;20562;-63
2022/05/28 03:09:05;;;;;;;32.20;6.13;;;14.00;33.10;;;;;;5009087;28;20867;-63
2022/05/28 03:11:32;;;;;;;35.07;5.70;;;14.00;32.50;;;;;;5006280;28;20957;-63
2022/05/28 03:13:59;;;;;;;30.40;5.87;;;14.00;32.30;;;;;;5007428;28;20463;-63
2022/05/28 03:16:26;;;;;;;31.20;6.20;;;13.90;32.10;;;;;;5008337;28;20460;-63
2022/05/28 03:18:53;;;;;;;28.60;5.10;;;13.90;31.90;;;;;;5008353;28;20460;-63
2022/05/28 03:21:20;;;;;;;30.47;5.73;;;14.00;31.80;;;;;;5008462;28;20495;-64
2022/05/28 03:23:48;;;;;;;34.00;7.20;;;13.90;31.70;;;;;;5006340;28;20468;-63
2022/05/28 03:26:17;;;;;;;34.10;6.27;;;13.90;31.60;;;;;;5008560;28;20957;-63
2022/05/28 03:28:45;;;;;;;32.67;5.53;;;13.90;31.60;;;;;;5007979;28;20463;-63
2022/05/28 03:31:12;;;;;;;37.40;6.10;;;13.90;31.40;;;;;;5007713;28;20992;-63
2022/05/28 03:33:39;;;;;;;33.07;6.03;;;13.80;31.00;;;;;;5007132;28;20464;-63
2022/05/28 03:36:07;;;;;;;35.00;5.37;;;13.80;30.90;;;;;;5008366;28;20491;-63
2022/05/28 03:38:34;;;;;;;31.90;5.67;;;13.80;30.70;;;;;;5008159;28;20976;-63
2022/05/28 03:41:02;;;;;;;32.60;5.33;;;13.80;30.60;;;;;;5007272;28;21000;-63
2022/05/28 03:43:29;;;;;;;31.90;5.57;;;13.70;30.50;;;;;;5007469;28;20839;-63
2022/05/28 03:45:56;;;;;;;34.60;6.23;;;13.70;30.60;;;;;;5007375;28;20456;-63
2022/05/28 03:48:24;;;;;;;34.93;6.77;;;13.70;30.70;;;;;;5008482;28;20817;-63
2022/05/28 03:50:51;;;;;;;34.03;6.17;;;13.70;30.70;;;;;;5007952;28;20462;-63
2022/05/28 03:53:18;;;;;;;33.93;6.10;;;13.60;30.90;;;;;;5007482;28;20459;-63
2022/05/28 03:55:45;;;;;;;33.83;5.87;;;13.60;31.10;;;;;;5005913;28;20470;-63
2022/05/28 03:58:14;;;;;;;34.20;5.60;;;13.60;31.20;;;;;;5007424;28;20491;-63
2022/05/28 04:00:40;;;;;;;32.40;6.33;;;13.60;31.40;;;;;;5007193;28;20472;-63
2022/05/28 04:03:07;;;;;;;31.80;5.83;;;13.60;31.30;;;;;;5006958;28;20484;-63
2022/05/28 04:05:36;;;;;;;36.33;7.03;;;13.60;31.30;;;;;;4996825;28;20464;-63
2022/05/28 04:08:03;;;;;;;31.17;6.07;;;13.60;31.30;;;;;;4986735;28;20485;-63
2022/05/28 04:10:29;;;;;;;32.97;6.40;;;13.60;31.40;;;;;;4986608;28;20464;-63
2022/05/28 04:12:56;;;;;;;34.90;5.50;;;13.60;31.10;;;;;;4988158;28;20467;-63
2022/05/28 04:15:27;;;;;;;35.07;5.17;;;13.60;30.90;;;;;;4992289;28;20460;-63
2022/05/28 04:17:53;;;;;;;32.97;5.67;;;13.70;30.80;;;;;;5007862;28;20543;-63
2022/05/28 04:20:20;;;;;;;31.83;5.17;;;13.70;30.60;;;;;;5007243;28;20456;-63
2022/05/28 04:22:47;;;;;;;34.53;5.73;;;13.70;30.40;;;;;;5007466;28;20487;-63
2022/05/28 04:25:14;;;;;;;39.00;6.00;;;13.70;30.40;;;;;;5005964;28;20563;-63
2022/05/28 04:27:42;;;;;;;33.90;5.87;;;13.80;30.10;;;;;;5007431;28;20535;-63
2022/05/28 04:30:10;;;;;;;33.13;5.17;;;13.80;29.90;;;;;;5006965;28;20960;-64
2022/05/28 04:32:38;;;;;;;34.33;5.57;;;13.80;29.80;;;;;;5006619;28;20464;-63
2022/05/28 04:35:05;;;;;;;35.77;5.87;;;13.90;29.70;;;;;;5007365;28;20463;-63
2022/05/28 04:37:32;;;;;;;34.63;5.33;;;14.00;29.30;;;;;;5006230;28;20487;-63
2022/05/28 04:39:59;;;;;;;34.80;6.03;;;14.00;29.00;;;;;;5007775;28;20474;-63
2022/05/28 04:42:26;;;;;;;35.87;5.90;;;14.20;28.90;;;;;;5007726;28;20487;-63
2022/05/28 04:44:53;;;;;;;33.23;5.30;;;14.40;28.30;;;;;;5011294;28;21013;-63
2022/05/28 04:47:20;;;;;;;34.03;5.70;;;14.50;27.80;;;;;;5009348;28;20494;-63
2022/05/28 04:49:48;;;;;;;36.93;5.73;;;14.70;27.40;;;;;;5011004;28;20456;-63
2022/05/28 04:52:15;;;;;;;34.43;5.10;;;15.30;26.90;;;;;;5011629;28;20462;-63
2022/05/28 04:54:41;;;;;;;32.30;4.33;;;16.30;24.60;;;;;;5010521;28;20463;-63
2022/05/28 04:57:08;;;;;;;37.70;4.70;;;17.40;21.50;;;;;;5009522;28;20821;-63
2022/05/28 04:59:35;;;;;;;33.07;4.27;;;18.50;18.80;;;;;;5010597;28;20455;-63
2022/05/28 05:02:02;;;;;;;35.60;4.73;;;19.30;16.60;;;;;;5010748;28;20471;-64
2022/05/28 05:04:29;;;;;;;34.17;4.80;;;19.40;15.90;;;;;;5010425;28;20982;-63
2022/05/28 05:06:57;;;;;;;32.50;4.27;;;19.70;14.00;;;;;;5009052;28;20488;-63
2022/05/28 05:09:24;;;;;;;35.37;5.07;;;19.40;13.90;;;;;;5001522;28;20463;-63
2022/05/28 05:11:51;;;;;;;35.03;4.63;;;19.00;14.60;;;;;;5010316;28;20455;-64
2022/05/28 05:14:18;;;;;;;32.50;4.27;;;18.80;14.80;;;;;;5010741;28;20464;-64
2022/05/28 05:16:44;;;;;;;35.10;4.00;;;18.80;14.90;;;;;;5010570;28;20511;-64
2022/05/28 05:19:11;;;;;;;33.47;3.93;;;18.60;14.80;;;;;;5010320;28;20470;-64
2022/05/28 05:21:38;;;;;;;38.17;5.03;;;18.70;14.90;;;;;;5008527;28;20489;-64
2022/05/28 05:24:07;;;;;;;35.53;4.67;;;18.90;14.80;;;;;;5010391;28;20562;-63
2022/05/28 05:26:34;;;;;;;34.50;5.27;;;19.60;14.20;;;;;;5010853;28;20460;-64
2022/05/28 05:29:00;;;;;;;33.87;4.67;;;20.10;12.80;;;;;;5010277;28;20470;-63
2022/05/28 05:31:27;;;;;;;35.50;5.07;;;20.10;12.40;;;;;;5007775;28;20482;-64
2022/05/28 05:33:54;;;;;;;31.10;3.77;;;19.90;12.10;;;;;;5009950;28;20455;-64
2022/05/28 05:36:21;;;;;;;31.50;4.27;;;19.80;12.60;;;;;;5010103;28;20463;-64
2022/05/28 05:38:47;;;;;;;34.73;4.33;;;20.20;12.90;;;;;;5010184;28;20832;-64
2022/05/28 05:41:16;;;;;;;33.67;4.73;;;20.40;11.30;;;;;;5009580;28;20459;-63
2022/05/28 05:43:42;;;;;;;30.40;3.97;;;20.70;10.70;;;;;;5010390;28;20852;-64
2022/05/28 05:46:09;;;;;;;33.80;4.23;;;20.60;10.90;;;;;;5009926;28;20975;-64
2022/05/28 05:48:36;;;;;;;33.37;4.57;;;21.10;11.00;;;;;;5010055;28;20545;-64
2022/05/28 05:51:08;;;;;;;32.90;4.50;;;21.50;9.50;;;;;;5009880;28;20456;-64
2022/05/28 05:53:34;;;;;;;31.63;3.77;;;21.20;10.00;;;;;;5008577;28;20459;-64
2022/05/28 05:56:01;;;;;;;34.67;4.67;;;21.00;9.10;;;;;;5009173;28;20467;-64
2022/05/28 05:58:29;;;;;;;35.60;4.60;;;20.70;9.30;;;;;;5009491;28;20510;-63
2022/05/28 06:00:56;;;;;;;32.47;3.97;;;20.90;9.20;;;;;;5009017;28;20475;-64
2022/05/28 06:03:23;;;;;;;33.33;4.10;;;20.90;8.90;;;;;;5007537;28;20488;-64
2022/05/28 06:05:50;;;;;;;30.57;3.60;;;21.10;8.60;;;;;;5011025;28;20463;-62
2022/05/28 06:08:17;;;;;;;31.20;3.90;;;22.00;9.10;;;;;;5010145;28;20911;-61
2022/05/28 06:10:45;;;;;;;31.90;3.90;;;23.70;6.40;;;;;;4991155;28;20473;-61
2022/05/28 06:13:11;;;;;;;31.40;3.70;;;25.80;3.50;;;;;;4996024;28;20464;-63
2022/05/28 06:15:39;;;;;;;29.53;3.43;;;27.70;1.00;;;;;;5010028;28;20465;-61
2022/05/28 06:18:07;;;;;;;29.97;3.80;;;28.10;1.00;;;;;;5009555;28;20713;-63
2022/05/28 06:20:34;;;;;;;33.07;4.40;;;28.30;1.00;;;;;;5009006;28;20460;-63
2022/05/28 06:23:02;;;;;;;30.93;3.30;;;29.10;1.00;;;;;;5008475;28;20483;-64
2022/05/28 06:25:28;;;;;;;28.07;3.40;;;30.80;1.00;;;;;;5008947;28;20456;-64
2022/05/28 06:27:55;;;;;;;29.53;3.53;;;31.30;1.00;;;;;;5009582;28;20952;-63
2022/05/28 06:30:22;;;;;;;29.43;3.33;;;32.70;1.00;;;;;;5008557;28;20936;-62
2022/05/28 06:32:50;;;;;;;28.70;2.93;;;34.50;1.00;;;;;;5009207;28;20466;-62
2022/05/28 06:35:18;;;;;;;27.93;3.40;;;36.10;1.00;;;;;;5006892;28;20471;-62
2022/05/28 06:37:47;;;;;;;28.73;3.20;;;37.10;1.00;;;;;;5009136;28;21024;-62
2022/05/28 06:40:14;;;;;;;28.80;3.53;;;37.90;1.00;;;;;;5008837;28;20463;-62
2022/05/28 06:42:41;;;;;;;28.53;3.20;;;37.10;1.00;;;;;;5008362;28;20562;-61
2022/05/28 06:45:13;;;;;;;29.90;3.00;;;34.60;1.00;;;;;;5007972;28;20467;-61
2022/05/28 06:47:40;;;;;;;28.30;2.90;;;32.70;1.00;;;;;;5009293;28;20483;-62
2022/05/28 06:52:54;;;;;;;28.50;2.80;;;32.50;1.00;;;;;;5009361;28;20438;-62
2022/05/28 06:55:21;;;;;;;28.40;3.30;;;34.50;1.00;;;;;;5007375;28;20999;-61
2022/05/28 06:57:49;;;;;;;28.67;3.10;;;36.20;1.00;;;;;;5008843;28;21021;-61
2022/05/28 07:00:16;;;;;;;28.97;3.13;;;37.30;1.00;;;;;;5008448;28;20459;-62
2022/05/28 07:02:43;;;;;;;30.17;3.07;;;38.50;1.00;;;;;;5008645;28;20492;-62
2022/05/28 07:05:13;;;;;;;26.80;2.90;;;39.90;1.00;;;;;;5006847;28;20467;-62
2022/05/28 07:07:40;;;;;;;25.63;2.40;;;40.70;1.00;;;;;;5009692;28;20492;-62
2022/05/28 07:10:08;;;;;;;26.67;2.90;;;41.40;1.00;;;;;;5007419;28;20590;-62
2022/05/28 07:12:35;;;;;;;24.50;2.33;;;42.10;1.00;;;;;;5008522;28;20459;-62
2022/05/28 07:15:03;;;;;;;26.03;3.30;;;42.90;1.00;;;;;;5007268;28;20791;-62
2022/05/28 07:17:29;;;;;;;29.13;2.60;;;43.20;1.00;;;;;;5008531;28;20483;-62
2022/05/28 07:19:56;;;;;;;26.87;2.87;;;43.10;1.00;;;;;;5007866;28;20458;-62
2022/05/28 07:22:24;;;;;;;26.43;2.50;;;42.20;1.00;;;;;;5008094;28;20479;-62
2022/05/28 07:24:51;;;;;;;26.07;2.60;;;40.90;1.00;;;;;;5008345;28;20470;-62
2022/05/28 07:27:18;;;;;;;26.00;2.60;;;41.70;1.00;;;;;;5006479;28;20484;-62
2022/05/28 07:29:45;;;;;;;24.93;2.70;;;42.80;1.00;;;;;;5008736;28;20471;-62
2022/05/28 07:32:12;;;;;;;24.50;2.17;;;43.70;1.00;;;;;;5007726;28;20472;-62
2022/05/28 07:34:39;;;;;;;25.83;2.60;;;44.40;1.00;;;;;;4999205;28;20464;-62
2022/05/28 07:37:06;;;;;;;23.83;2.00;;;45.30;1.00;;;;;;4995513;28;20492;-63
2022/05/28 07:39:34;;;;;;;23.90;2.57;;;45.90;1.00;;;;;;4991114;28;20460;-62
2022/05/28 07:42:03;;;;;;;24.33;2.27;;;46.50;1.00;;;;;;4992995;28;20476;-62
2022/05/28 07:44:30;;;;;;;23.60;2.20;;;47.10;1.00;;;;;;4992580;28;20468;-63
2022/05/28 07:46:57;;;;;;;24.87;2.07;;;47.40;1.00;;;;;;4994467;28;20566;-63
2022/05/28 07:49:24;;;;;;;22.90;2.17;;;48.00;1.00;;;;;;4994777;28;20555;-62
2022/05/28 07:51:51;;;;;;;23.60;2.70;;;48.70;1.00;;;;;;4997829;28;20469;-62
2022/05/28 07:54:18;;;;;;;22.17;1.90;;;49.50;1.00;;;;;;4995368;28;20461;-62
2022/05/28 07:56:46;;;;;;;23.53;1.70;;;49.90;1.00;;;;;;4991907;28;20497;-63
2022/05/28 07:59:13;;;;;;;21.30;1.70;;;50.10;1.00;;;;;;4991250;28;20472;-63
2022/05/28 08:01:40;;;;;;;23.00;1.73;;;50.20;1.00;;;;;;4995436;28;20476;-63
2022/05/28 08:04:08;;;;;;;23.13;2.00;;;50.50;1.00;;;;;;5007752;28;20491;-63
2022/05/28 08:06:35;;;;;;;21.20;1.80;;;50.60;1.00;;;;;;5008203;28;20469;-63
2022/05/28 08:09:03;;;;;;;21.00;1.67;;;50.80;1.00;;;;;;4998614;28;20953;-63
2022/05/28 08:11:30;;;;;;;22.47;1.87;;;50.80;1.00;;;;;;4992462;28;20968;-63
2022/05/28 08:13:58;;;;;;;20.53;1.40;;;50.60;1.00;;;;;;5007732;28;20852;-63
2022/05/28 08:16:25;;;;;;;21.27;1.70;;;50.60;1.00;;;;;;5001776;28;20458;-64
2022/05/28 08:18:52;;;;;;;20.43;1.37;;;51.00;1.00;;;;;;4999758;28;20467;-64
2022/05/28 08:24:05;;;;;;;22.00;1.77;;;51.30;1.00;;;;;;5007106;28;20704;-63
2022/05/28 08:26:32;;;;;;;21.50;1.50;;;51.40;1.00;;;;;;5007630;28;20463;-63
2022/05/28 08:29:00;;;;;;;20.67;1.60;;;51.70;1.00;;;;;;5004751;28;20475;-64
2022/05/28 08:31:26;;;;;;;21.60;1.70;;;52.10;1.00;;;;;;5005795;28;20490;-63
2022/05/28 08:33:54;;;;;;;21.77;1.70;;;52.20;1.00;;;;;;5007782;28;20459;-64
2022/05/28 08:36:21;;;;;;;21.03;1.50;;;52.30;1.00;;;;;;5006614;28;20464;-63
2022/05/28 08:38:48;;;;;;;19.60;1.20;;;52.70;1.00;;;;;;5006449;28;21018;-64
2022/05/28 08:41:19;;;;;;;19.90;1.27;;;53.00;1.00;;;;;;5006815;28;20566;-64
2022/05/28 08:43:50;;;;;;;20.60;1.70;;;53.20;1.00;;;;;;5007157;28;20472;-64
2022/05/28 08:46:19;;;;;;;19.20;1.30;;;53.00;1.00;;;;;;5006932;28;20451;-64
2022/05/28 08:48:48;;;;;;;19.73;1.57;;;52.80;1.00;;;;;;5005873;28;20468;-64
2022/05/28 08:51:19;;;;;;;21.00;1.93;;;52.90;1.00;;;;;;5004664;28;20468;-64
2022/05/28 08:53:51;;;;;;;20.70;1.57;;;53.00;1.00;;;;;;5006748;28;20448;-66
2022/05/28 08:56:22;;;;;;;19.97;1.30;;;51.10;1.00;;;;;;5007031;28;20475;-66
2022/05/28 08:59:00;;;;;;;21.17;1.60;;;47.90;1.00;;;;;;5007251;28;20572;-66
2022/05/28 09:01:31;;;;;;;22.37;1.80;;;45.90;1.00;;;;;;5005241;28;20486;-66
2022/05/28 09:04:01;;;;;;;21.67;1.70;;;47.00;1.00;;;;;;5007416;28;20483;-66
2022/05/28 09:06:36;;;;;;;20.80;1.70;;;48.00;1.00;;;;;;5007231;28;20937;-66
2022/05/28 09:09:03;;;;;;;21.00;1.40;;;49.30;1.00;;;;;;5007612;28;20448;-66
2022/05/28 09:11:36;;;;;;;21.20;1.87;;;50.00;1.00;;;;;;5005479;28;20515;-66
2022/05/28 09:14:18;;;;;;;22.07;1.87;;;49.00;1.00;;;;;;5007161;28;20868;-65
2022/05/28 09:16:48;;;;;;;22.80;2.13;;;45.60;1.00;;;;;;5007507;28;20489;-65
2022/05/28 09:19:18;;;;;;;22.90;1.70;;;43.00;1.00;;;;;;5007355;28;20872;-65
2022/05/28 09:21:47;;;;;;;24.07;2.40;;;43.30;1.00;;;;;;5005653;28;20483;-65
2022/05/28 09:24:17;;;;;;;26.40;2.13;;;44.50;1.00;;;;;;5007199;28;20498;-65
2022/05/28 09:26:57;;;;;;;23.83;2.00;;;45.60;1.00;;;;;;5006433;28;21036;-65
2022/05/28 09:29:37;;;;;;;23.17;2.30;;;45.80;1.00;;;;;;5006858;28;20940;-65
2022/05/28 09:32:10;;;;;;;23.47;2.33;;;44.70;1.00;;;;;;5008029;28;20482;-65
2022/05/28 09:34:55;;;;;;;24.20;2.07;;;43.20;1.00;;;;;;5010781;28;20451;-65
2022/05/28 09:37:30;;;;;;;25.30;2.20;;;41.30;1.00;;;;;;5010426;28;20479;-66
2022/05/28 09:40:03;;;;;;;24.80;2.40;;;39.70;1.00;;;;;;5010858;28;20605;-65
2022/05/28 09:42:54;;;;;;;26.73;2.87;;;37.80;1.00;;;;;;5008518;28;20440;-65
2022/05/28 09:45:26;;;;;;;25.70;2.37;;;36.30;1.00;;;;;;4988188;28;20840;-64
2022/05/28 09:47:55;;;;;;;25.97;2.30;;;35.00;1.00;;;;;;4990672;28;21048;-64
2022/05/28 09:50:26;;;;;;;25.87;2.43;;;33.90;1.00;;;;;;4990436;28;20457;-64
2022/05/28 09:55:55;;;;;;;26.30;2.33;;;32.20;1.00;;;;;;4990031;28;20552;-63
2022/05/28 09:58:24;;;;;;;27.80;2.63;;;31.30;1.00;;;;;;4990168;28;20484;-63
2022/05/28 10:00:52;;;;;;;26.33;2.37;;;30.50;1.00;;;;;;4989538;28;20476;-64
2022/05/28 10:06:16;;;;;;;26.20;2.27;;;29.60;1.00;;;;;;4989586;28;20917;-64
2022/05/28 10:08:43;;;;;;;28.17;2.63;;;29.10;1.00;;;;;;4989648;28;20999;-63
2022/05/28 10:11:15;;;;;;;30.13;2.60;;;28.70;1.00;;;;;;4989486;28;20448;-63
2022/05/28 10:13:44;;;;;;;26.77;2.70;;;28.50;1.00;;;;;;4989021;28;20447;-63
2022/05/28 10:16:12;;;;;;;27.73;2.90;;;28.30;1.00;;;;;;5009574;28;20464;-63
2022/05/28 10:18:46;;;;;;;26.70;2.80;;;28.10;1.00;;;;;;5008838;28;20903;-63
2022/05/28 10:21:18;;;;;;;26.30;1.90;;;28.00;1.00;;;;;;5009045;28;20975;-62
2022/05/28 10:23:51;;;;;;;30.00;3.40;;;27.70;1.00;;;;;;5008886;28;20475;-62
2022/05/28 10:26:21;;;;;;;26.30;2.20;;;27.30;1.00;;;;;;4998172;28;20860;-62
2022/05/28 10:28:50;;;;;;;29.97;3.13;;;27.00;1.00;;;;;;5003929;28;20487;-62
2022/05/28 10:31:20;;;;;;;30.70;2.70;;;26.80;1.00;;;;;;5008948;28;20472;-63
2022/05/28 10:33:48;;;;;;;30.30;3.57;;;26.50;1.00;;;;;;5009254;28;20459;-63
2022/05/28 10:36:18;;;;;;;27.67;2.37;;;26.40;1.00;;;;;;5009100;28;20452;-63
2022/05/28 10:38:45;;;;;;;28.20;2.97;;;26.30;1.00;;;;;;5009649;28;20495;-64
2022/05/28 10:41:19;;;;;;;27.27;2.50;;;26.30;1.00;;;;;;5007765;28;20503;-64
2022/05/28 10:43:46;;;;;;;28.47;3.80;;;26.20;1.00;;;;;;5009766;28;20494;-64
2022/05/28 10:46:22;;;;;;;27.30;2.83;;;26.20;1.00;;;;;;5009342;28;20455;-64
2022/05/28 10:49:02;;;;;;;28.30;2.43;;;26.20;1.00;;;;;;5009752;28;20726;-64
2022/05/28 10:51:35;;;;;;;28.43;2.70;;;26.20;1.00;;;;;;5007730;28;20546;-64
2022/05/28 10:54:18;;;;;;;26.63;2.50;;;26.00;1.00;;;;;;5009173;28;20459;-64
2022/05/28 10:56:53;;;;;;;28.53;2.50;;;25.90;1.00;;;;;;5009438;28;20544;-64
2022/05/28 10:59:47;;;;;;;31.60;3.23;;;25.80;1.00;;;;;;5008921;28;20566;-64
2022/05/28 11:03:03;;;;;;;27.60;2.50;;;25.70;1.00;;;;;;5006365;28;20467;-64
2022/05/28 11:05:53;;;;;;;27.57;3.00;;;25.60;1.00;;;;;;5009336;28;20543;-64
2022/05/28 11:08:28;;;;;;;28.30;2.40;;;25.60;1.00;;;;;;5009247;28;20487;-63
2022/05/28 11:11:19;;;;;;;28.10;2.80;;;25.60;1.00;;;;;;5009467;28;20505;-64
2022/05/28 11:14:14;;;;;;;29.50;3.73;;;25.60;1.00;;;;;;5007173;28;20981;-63
2022/05/28 11:17:03;;;;;;;27.10;2.50;;;25.50;1.00;;;;;;5009017;28;20494;-64
2022/05/28 11:19:44;;;;;;;27.37;2.60;;;25.50;1.00;;;;;;5008847;28;20530;-64
2022/05/28 11:22:42;;;;;;;27.80;3.37;;;25.50;1.00;;;;;;5007813;28;20913;-64
2022/05/28 11:25:13;;;;;;;28.27;2.90;;;25.60;1.00;;;;;;5004365;28;20510;-64
2022/05/28 11:27:59;;;;;;;28.30;2.93;;;25.60;1.00;;;;;;5009107;28;20483;-64
2022/05/28 11:30:31;;;;;;;27.03;2.40;;;25.70;1.00;;;;;;5009016;28;20440;-64
2022/05/28 11:33:04;;;;;;;28.90;3.67;;;25.70;1.00;;;;;;5007269;28;20463;-63
2022/05/28 11:35:37;;;;;;;26.87;2.50;;;25.70;1.00;;;;;;5008486;28;20448;-64
2022/05/28 11:38:13;;;;;;;27.17;2.80;;;25.60;1.00;;;;;;5008953;28;20479;-64
2022/05/28 11:41:00;;;;;;;27.50;2.50;;;25.50;1.00;;;;;;5008871;28;20534;-64
2022/05/28 11:43:31;;;;;;;27.60;2.80;;;25.40;1.00;;;;;;5006309;28;20471;-64
2022/05/28 11:46:04;;;;;;;29.13;2.60;;;25.30;1.00;;;;;;5008485;28;20452;-64
2022/05/28 11:51:30;;;;;;;28.10;2.57;;;25.10;1.00;;;;;;5008104;28;20521;-63
2022/05/28 11:54:04;;;;;;;27.87;2.40;;;25.00;1.00;;;;;;5006319;28;20490;-64
2022/05/28 11:56:31;;;;;;;31.13;2.83;;;24.90;1.00;;;;;;5007783;28;20444;-63
2022/05/28 11:59:01;;;;;;;28.37;2.57;;;24.90;1.00;;;;;;5008763;28;20468;-63
2022/05/28 12:01:32;;;;;;;28.80;3.03;;;24.80;1.00;;;;;;5007407;28;20472;-63
2022/05/28 12:04:01;;;;;;;28.90;4.13;;;24.80;1.00;;;;;;5005731;28;20490;-63
2022/05/28 12:06:31;;;;;;;30.47;3.07;;;24.70;1.00;;;;;;5006902;28;20839;-63
2022/05/28 12:09:06;;;;;;;27.50;2.60;;;24.70;1.00;;;;;;5008081;28;20521;-63
2022/05/28 12:11:40;;;;;;;28.60;3.07;;;24.60;1.00;;;;;;5007450;28;20547;-64
2022/05/28 12:14:19;;;;;;;28.00;2.83;;;24.50;1.00;;;;;;5007050;28;20465;-63
2022/05/28 12:17:00;;;;;;;28.17;2.93;;;24.50;1.00;;;;;;5008203;28;20487;-63
2022/05/28 12:19:27;;;;;;;29.90;2.87;;;24.50;1.00;;;;;;5008262;28;20590;-64
2022/05/28 12:22:05;;;;;;;29.97;2.90;;;24.60;1.00;;;;;;5008656;28;20539;-64
2022/05/28 12:24:33;;;;;;;29.50;3.03;;;24.50;1.00;;;;;;5006548;28;20464;-63
2022/05/28 12:27:13;;;;;;;27.07;2.43;;;24.50;1.00;;;;;;5006206;28;20499;-64
2022/05/28 12:29:57;;;;;;;29.37;3.03;;;24.40;1.00;;;;;;5007651;28;20485;-63
2022/05/28 12:32:27;;;;;;;28.47;2.80;;;24.40;1.00;;;;;;5006066;28;20579;-63
2022/05/28 12:34:56;;;;;;;27.57;2.47;;;24.40;1.00;;;;;;5007297;28;20460;-63
2022/05/28 12:37:27;;;;;;;28.80;2.60;;;24.40;1.00;;;;;;5004800;28;20538;-63
2022/05/28 12:40:08;;;;;;;29.10;3.10;;;24.20;1.00;;;;;;5006875;28;20471;-63
2022/05/28 12:42:36;;;;;;;27.23;2.30;;;24.10;1.00;;;;;;5006798;28;20451;-63
2022/05/28 12:45:18;;;;;;;28.93;2.50;;;23.90;1.00;;;;;;5006234;28;20487;-63
2022/05/28 12:47:45;;;;;;;29.10;2.50;;;23.80;1.00;;;;;;5005004;28;20475;-63
2022/05/28 12:50:22;;;;;;;29.13;3.00;;;23.70;1.00;;;;;;5006982;28;20470;-63
2022/05/28 12:52:57;;;;;;;29.77;2.87;;;23.70;1.00;;;;;;5006586;28;20479;-63
2022/05/28 12:55:35;;;;;;;28.97;2.23;;;23.70;1.00;;;;;;5007228;28;20455;-63
2022/05/28 12:58:06;;;;;;;27.70;2.50;;;23.50;1.00;;;;;;5006125;28;20491;-63
2022/05/28 13:00:44;;;;;;;27.90;2.67;;;23.40;1.00;;;;;;5007457;28;20894;-63
2022/05/28 13:03:16;;;;;;;28.70;2.83;;;23.30;1.00;;;;;;5006665;28;20451;-63
2022/05/28 13:05:48;;;;;;;27.90;3.63;;;23.30;1.00;;;;;;5009512;28;20499;-63
2022/05/28 13:08:20;;;;;;;28.40;2.50;;;23.20;1.00;;;;;;5009166;28;20502;-63
2022/05/28 13:10:52;;;;;;;29.17;3.50;;;23.30;1.00;;;;;;5010386;28;20838;-63
2022/05/28 13:13:57;;;;;;;29.73;3.10;;;23.30;1.00;;;;;;5010481;28;20751;-63